Ipora, Brazil
Current Conditions -  °F | °C
As of 2:50 PM on Friday 24 Oct 2014 (Local Time) from SBGO Reporting Station
Thunderstorm Thunderstorm  
Wind Chill: 82°   Ceiling: 4000
Heat Index: 82°   Visibility: 6mi
Dew Point: 59°   Wind: 14mph
Humidity: 45%   Direction: 120°ESE
Pressure: 29.94"   Gusts: NA
Location:  16.44°S, 51.12°W
Report Text: SBGO 241650Z 12012KT 9999 TS VCSH BKN040 FEW045CB 28/15 Q1014
Loading
Personal Weather Stations






























Interactive Weather Map
Tropical Storm Tracking
New forecast layout! Learn more

10-Day Weather Forecast

Advertisements
Track Severe Weather on mobile